CheckWX is a tool to help pilots better visualize weather data.  It is not intended as a substitute for an official pre-flight weather briefing.

03:16:44 UTC

KCDJ METAR
Chillicothe Agri-Science Center Airport
Chillicothe, Missouri, USA
Current

25 mins ago

KCDJ 270252Z AUTO 16003KT 23/19 A3000 RMK AO1 SLP149 T02330189 53005
Observed
May-27 @ 02:52 UTC
Wind
  • 160° at 3 KTS
Visibility
Temperature
23°C / 73°F
Dewpoint
19°C / 66°F
Humidity
78%
Altimeter
30" Hg
Pressure
1015.92 hPa
Previous

1 hour ago

KCDJ 270152Z AUTO 15003KT 23/19 A2999 RMK AO1 SLP144 T02330189
Observed
May-27 @ 01:52 UTC
Wind
  • 150° at 3 KTS
Visibility
Temperature
23°C / 73°F
Dewpoint
19°C / 66°F
Humidity
78%
Altimeter
29.99" Hg
Pressure
1015.62 hPa
Previous

2 hours ago

KCDJ 270052Z AUTO 00000KT 25/19 A2999 RMK AO1 SLP147 T02500194
Observed
May-27 @ 00:52 UTC
Visibility
Temperature
25°C / 77°F
Dewpoint
19°C / 66°F
Humidity
69%
Altimeter
29.99" Hg
Pressure
1015.62 hPa